createdAt,value
2022-12-15T00:02:13.028Z,-4.18
2022-12-15T00:04:58.165Z,-4.25
2022-12-15T00:07:43.110Z,-4.09
2022-12-15T00:10:28.341Z,-4.06
2022-12-15T00:13:13.239Z,-3.97
2022-12-15T00:15:58.239Z,-3.89
2022-12-15T00:18:43.389Z,-3.81
2022-12-15T00:21:28.268Z,-3.86
2022-12-15T00:24:13.301Z,-3.77
2022-12-15T00:26:58.138Z,-3.88
2022-12-15T00:29:43.112Z,-3.74
2022-12-15T00:32:27.879Z,-3.87
2022-12-15T00:35:12.763Z,-3.80
2022-12-15T00:37:58.064Z,-3.66
2022-12-15T00:40:24.649Z,-3.48
2022-12-15T00:42:51.088Z,-3.38
2022-12-15T00:45:17.564Z,-3.28
2022-12-15T00:47:44.027Z,-3.21
2022-12-15T00:50:29.001Z,-3.29
2022-12-15T00:53:13.938Z,-2.90
2022-12-15T00:55:58.977Z,-2.87
2022-12-15T00:58:43.963Z,-2.84
2022-12-15T01:01:29.508Z,-2.75
2022-12-15T01:04:14.820Z,-2.74
2022-12-15T01:06:59.997Z,-2.81
2022-12-15T01:09:46.249Z,-2.81
2022-12-15T01:12:31.085Z,-2.80
2022-12-15T01:15:16.182Z,-2.81
2022-12-15T01:18:01.270Z,-2.89
2022-12-15T01:20:27.822Z,-2.96
2022-12-15T01:22:55.502Z,-2.75
2022-12-15T01:25:24.471Z,-2.68
2022-12-15T01:27:51.514Z,-2.72
2022-12-15T01:30:21.111Z,-2.85
2022-12-15T01:32:47.964Z,-2.74
2022-12-15T01:35:14.770Z,-2.80
2022-12-15T01:37:41.319Z,-3.15
2022-12-15T01:40:27.645Z,-2.98
2022-12-15T01:42:54.130Z,-2.87
2022-12-15T01:45:23.561Z,-2.67
2022-12-15T01:47:57.254Z,-2.81
2022-12-15T01:50:25.572Z,-2.76
2022-12-15T01:52:53.949Z,-2.79
2022-12-15T01:55:22.106Z,-3.02
2022-12-15T01:57:51.251Z,-2.90
2022-12-15T02:00:17.721Z,-3.09
2022-12-15T02:02:44.388Z,-3.15
2022-12-15T02:05:11.153Z,-2.74
2022-12-15T02:07:38.374Z,-2.71
2022-12-15T02:10:07.455Z,-2.90
2022-12-15T02:12:42.929Z,-2.65
2022-12-15T02:15:31.723Z,-2.70
2022-12-15T02:18:26.328Z,-2.72
2022-12-15T02:21:11.611Z,-2.69
2022-12-15T02:24:06.119Z,-2.74
2022-12-15T02:26:51.214Z,-2.78
2022-12-15T02:29:36.361Z,-2.85
2022-12-15T02:32:16.664Z,-2.99
2022-12-15T02:34:56.082Z,-3.03
2022-12-15T02:37:34.848Z,-3.09
2022-12-15T02:40:02.451Z,-3.11
2022-12-15T02:42:32.138Z,-3.14
2022-12-15T02:45:10.244Z,-3.17
2022-12-15T02:48:10.054Z,-3.24
2022-12-15T02:50:48.070Z,-3.35
2022-12-15T02:53:47.229Z,-3.41
2022-12-15T02:56:34.518Z,-3.42
2022-12-15T02:59:38.038Z,-3.40
2022-12-15T03:02:07.593Z,-3.42
2022-12-15T03:04:34.904Z,-3.39
2022-12-15T03:07:05.398Z,-3.40
2022-12-15T03:09:33.042Z,-3.42
2022-12-15T03:12:00.370Z,-3.35
2022-12-15T03:14:27.207Z,-3.31
2022-12-15T03:16:54.697Z,-3.32
2022-12-15T03:19:21.795Z,-3.30
2022-12-15T03:21:48.315Z,-3.12
2022-12-15T03:24:14.970Z,-3.13
2022-12-15T03:26:41.424Z,-3.20
2022-12-15T03:29:08.121Z,-3.14
2022-12-15T03:31:34.703Z,-3.24
2022-12-15T03:34:02.086Z,-3.29
2022-12-15T03:36:28.663Z,-3.34
2022-12-15T03:38:55.325Z,-3.27
2022-12-15T03:41:21.918Z,-3.17
2022-12-15T03:43:49.764Z,-3.00
2022-12-15T03:46:16.751Z,-2.97
2022-12-15T03:48:43.554Z,-3.02
2022-12-15T03:51:10.095Z,-3.06
2022-12-15T03:53:36.714Z,-3.08
2022-12-15T03:56:03.248Z,-2.99
2022-12-15T03:58:30.399Z,-2.97
2022-12-15T04:00:57.118Z,-2.86
2022-12-15T04:03:23.757Z,-2.80
2022-12-15T04:05:50.629Z,-2.78
2022-12-15T04:08:17.199Z,-2.80
2022-12-15T04:10:43.725Z,-2.70
2022-12-15T04:13:11.918Z,-2.70
2022-12-15T04:15:40.270Z,-2.67
2022-12-15T04:18:10.204Z,-2.67
2022-12-15T04:20:38.442Z,-2.80
2022-12-15T04:23:08.062Z,-2.80
2022-12-15T04:25:54.259Z,-2.72
2022-12-15T04:28:39.424Z,-2.75
2022-12-15T04:31:31.204Z,-2.77
2022-12-15T04:34:21.951Z,-2.78
2022-12-15T04:37:10.191Z,-2.85
2022-12-15T04:39:57.345Z,-2.82
2022-12-15T04:42:42.997Z,-2.83
2022-12-15T04:45:30.634Z,-2.92
2022-12-15T04:48:15.835Z,-2.88
2022-12-15T04:51:00.755Z,-2.83
2022-12-15T04:53:45.738Z,-2.76
2022-12-15T04:56:33.566Z,-2.83
2022-12-15T04:59:19.725Z,-2.76
2022-12-15T05:02:06.163Z,-2.79
2022-12-15T05:04:51.237Z,-2.73
2022-12-15T05:07:36.513Z,-2.68
2022-12-15T05:10:22.665Z,-2.76
2022-12-15T05:13:08.021Z,-2.82
2022-12-15T05:15:53.764Z,-2.64
2022-12-15T05:18:39.728Z,-2.57
2022-12-15T05:21:25.062Z,-2.48
2022-12-15T05:24:10.410Z,-2.44
2022-12-15T05:26:55.631Z,-2.40
2022-12-15T05:29:40.639Z,-2.42
2022-12-15T05:32:08.331Z,-2.36
2022-12-15T05:34:37.247Z,-2.35
2022-12-15T05:37:05.402Z,-2.26
2022-12-15T05:39:32.048Z,-2.20
2022-12-15T05:41:58.729Z,-2.16
2022-12-15T05:44:25.962Z,-2.22
2022-12-15T05:46:53.127Z,-2.27
2022-12-15T05:49:20.058Z,-2.30
2022-12-15T05:51:48.106Z,-2.23
2022-12-15T05:54:18.352Z,-2.20
2022-12-15T05:56:45.569Z,-2.20
2022-12-15T05:59:12.442Z,-2.21
2022-12-15T06:01:39.133Z,-2.16
2022-12-15T06:04:07.416Z,-2.14
2022-12-15T06:06:34.370Z,-2.21
2022-12-15T06:09:00.936Z,-2.10
2022-12-15T06:11:27.563Z,-2.06
2022-12-15T06:13:55.785Z,-1.99
2022-12-15T06:16:24.020Z,-1.95
2022-12-15T06:18:54.213Z,-2.00
2022-12-15T06:21:23.799Z,-1.92
2022-12-15T06:23:50.986Z,-1.88
2022-12-15T06:26:25.733Z,-1.85
2022-12-15T06:28:52.927Z,-1.84
2022-12-15T06:31:23.046Z,-1.82
2022-12-15T06:33:53.507Z,-1.89
2022-12-15T06:36:25.993Z,-1.89
2022-12-15T06:38:52.649Z,-2.03
2022-12-15T06:41:21.518Z,-2.08
2022-12-15T06:43:55.924Z,-2.09
2022-12-15T06:46:23.843Z,-2.07
2022-12-15T06:48:50.425Z,-2.14
2022-12-15T06:51:17.863Z,-2.08
2022-12-15T06:53:49.180Z,-2.05
2022-12-15T06:56:19.151Z,-1.99
2022-12-15T06:58:48.834Z,-1.96
2022-12-15T07:01:20.607Z,-2.03
2022-12-15T07:03:56.670Z,-2.07
2022-12-15T07:06:23.721Z,-2.04
2022-12-15T07:08:53.136Z,-1.97
2022-12-15T07:11:21.790Z,-1.88
2022-12-15T07:13:54.735Z,-1.84
2022-12-15T07:16:23.238Z,-1.86
2022-12-15T07:18:50.209Z,-1.81
2022-12-15T07:21:17.367Z,-1.85
2022-12-15T07:24:00.605Z,-1.88
2022-12-15T07:26:27.854Z,-1.80
2022-12-15T07:28:54.684Z,-1.83
2022-12-15T07:31:21.944Z,-1.93
2022-12-15T07:33:48.826Z,-1.84
2022-12-15T07:36:15.765Z,-1.85
2022-12-15T07:38:42.300Z,-1.79
2022-12-15T07:41:09.949Z,-1.77
2022-12-15T07:43:37.598Z,-1.88
2022-12-15T07:46:05.515Z,-1.86
2022-12-15T07:48:32.894Z,-1.84
2022-12-15T07:51:08.437Z,-1.76
2022-12-15T07:53:37.242Z,-1.85
2022-12-15T07:56:08.006Z,-1.85
2022-12-15T07:58:36.071Z,-1.84
2022-12-15T08:01:05.199Z,-1.87
2022-12-15T08:03:35.030Z,-1.83
2022-12-15T08:06:06.086Z,-1.86
2022-12-15T08:08:34.261Z,-1.82
2022-12-15T08:11:09.830Z,-1.82
2022-12-15T08:16:23.900Z,-1.82
2022-12-15T08:18:50.465Z,-1.83
2022-12-15T08:21:16.995Z,-1.80
2022-12-15T08:23:43.471Z,-1.84
2022-12-15T08:26:15.067Z,-1.69
2022-12-15T08:28:42.657Z,-1.83
2022-12-15T08:31:11.917Z,-1.80
2022-12-15T08:33:39.362Z,-1.78
2022-12-15T08:36:09.563Z,-1.72
2022-12-15T08:38:38.672Z,-1.56
2022-12-15T08:41:11.921Z,-1.56
2022-12-15T08:43:44.073Z,-1.50
2022-12-15T08:46:14.946Z,-1.52
2022-12-15T08:48:41.617Z,-1.57
2022-12-15T08:51:08.161Z,-1.55
2022-12-15T08:53:34.801Z,-1.46
2022-12-15T08:56:06.405Z,-1.44
2022-12-15T08:58:33.311Z,-1.32
2022-12-15T09:01:05.276Z,-1.20
2022-12-15T09:03:33.583Z,-1.23
2022-12-15T09:06:04.948Z,-1.18
2022-12-15T09:08:32.819Z,-1.13
2022-12-15T09:11:00.269Z,-1.03
2022-12-15T09:13:36.715Z,-1.04
2022-12-15T09:16:10.735Z,-0.99
2022-12-15T09:18:37.694Z,-0.99
2022-12-15T09:21:06.348Z,-0.88
2022-12-15T09:23:34.983Z,-0.86
2022-12-15T09:26:03.914Z,-0.73
2022-12-15T09:28:32.008Z,-0.68
2022-12-15T09:31:13.124Z,-0.70
2022-12-15T09:33:40.872Z,-0.68
2022-12-15T09:36:08.576Z,-0.64
2022-12-15T09:38:37.190Z,-0.57
2022-12-15T09:41:23.529Z,-0.50
2022-12-15T09:44:14.447Z,-0.52
2022-12-15T09:46:50.588Z,-0.39
2022-12-15T09:49:41.532Z,-0.36
2022-12-15T09:52:14.403Z,-0.35
2022-12-15T09:54:43.236Z,-0.40
2022-12-15T09:57:31.552Z,-0.39
2022-12-15T10:00:15.552Z,-0.38
2022-12-15T10:02:59.468Z,-0.34
2022-12-15T10:06:20.055Z,-0.30
2022-12-15T10:08:58.604Z,-0.26
2022-12-15T10:11:50.268Z,-0.20
2022-12-15T10:14:22.896Z,-0.16
2022-12-15T10:16:52.732Z,-0.07
2022-12-15T10:19:28.458Z,-0.05
2022-12-15T10:21:57.446Z,-0.04
2022-12-15T10:25:00.345Z,0.02
2022-12-15T10:27:22.780Z,0.01
2022-12-15T10:30:14.054Z,-0.04
2022-12-15T10:33:11.140Z,-0.01
2022-12-15T10:35:39.754Z,0.04
2022-12-15T10:38:14.749Z,0.15
2022-12-15T10:41:03.211Z,0.12
2022-12-15T10:43:34.242Z,0.10
2022-12-15T10:46:11.909Z,0.06
2022-12-15T10:48:38.772Z,0.13
2022-12-15T10:51:26.886Z,0.13
2022-12-15T10:54:09.908Z,0.16
2022-12-15T10:56:52.778Z,0.28
2022-12-15T10:59:28.578Z,0.38
2022-12-15T11:01:57.479Z,0.50
2022-12-15T11:04:32.416Z,0.61
2022-12-15T11:07:01.144Z,0.67
2022-12-15T11:09:36.489Z,0.68
2022-12-15T11:12:36.191Z,0.66
2022-12-15T11:15:07.001Z,0.74
2022-12-15T11:17:42.679Z,0.74
2022-12-15T11:20:22.187Z,0.77
2022-12-15T11:23:02.876Z,0.78
2022-12-15T11:25:38.823Z,0.80
2022-12-15T11:28:14.389Z,0.89
2022-12-15T11:31:02.836Z,0.93
2022-12-15T11:33:29.561Z,0.98
2022-12-15T11:36:13.532Z,1.03
2022-12-15T11:38:50.286Z,1.02
2022-12-15T11:41:35.602Z,1.10
2022-12-15T11:44:17.781Z,1.10
2022-12-15T11:47:03.622Z,1.19
2022-12-15T11:50:09.857Z,1.12
2022-12-15T11:52:59.711Z,1.14
2022-12-15T11:55:53.284Z,1.15
2022-12-15T11:58:45.441Z,1.17
2022-12-15T12:05:11.439Z,1.19
2022-12-15T12:07:59.246Z,1.20
2022-12-15T12:10:31.511Z,1.26
2022-12-15T12:13:10.043Z,1.30
2022-12-15T12:16:00.499Z,1.36
2022-12-15T12:18:36.684Z,1.32
2022-12-15T12:21:16.927Z,1.32
2022-12-15T12:24:11.789Z,1.39
2022-12-15T12:26:51.080Z,1.41
2022-12-15T12:29:34.537Z,1.47
2022-12-15T12:32:30.431Z,1.53
2022-12-15T12:35:31.937Z,1.68
2022-12-15T12:38:04.490Z,1.62
2022-12-15T12:40:40.407Z,1.70
2022-12-15T12:43:13.544Z,1.69
2022-12-15T12:45:55.827Z,1.54
2022-12-15T12:48:34.661Z,1.64
2022-12-15T12:51:17.710Z,1.64
2022-12-15T12:53:44.367Z,1.62
2022-12-15T12:56:34.284Z,1.72
2022-12-15T12:59:07.761Z,1.70
2022-12-15T13:01:37.676Z,1.74
2022-12-15T13:04:11.942Z,1.72
2022-12-15T13:06:38.416Z,1.82
2022-12-15T13:09:17.144Z,1.86
2022-12-15T13:11:51.014Z,1.83
2022-12-15T13:14:44.578Z,1.75
2022-12-15T13:17:26.588Z,1.74
2022-12-15T13:19:59.890Z,1.83
2022-12-15T13:22:35.553Z,1.84
2022-12-15T13:25:22.890Z,1.74
2022-12-15T13:27:56.197Z,1.82
2022-12-15T13:30:22.666Z,1.92
2022-12-15T13:32:55.208Z,1.87
2022-12-15T13:35:26.249Z,1.84
2022-12-15T13:38:03.659Z,1.83
2022-12-15T13:40:36.400Z,1.87
2022-12-15T13:43:06.030Z,1.87
2022-12-15T13:45:52.346Z,1.86
2022-12-15T13:48:33.826Z,1.95
2022-12-15T13:51:05.944Z,1.95
2022-12-15T13:53:41.440Z,2.03
2022-12-15T13:56:10.934Z,2.06
2022-12-15T13:58:49.034Z,1.99
2022-12-15T14:01:33.344Z,1.88
2022-12-15T14:04:06.241Z,1.95
2022-12-15T14:06:47.038Z,1.91
2022-12-15T14:09:24.157Z,1.97
2022-12-15T14:11:53.538Z,1.98
2022-12-15T14:14:30.169Z,1.96
2022-12-15T14:17:03.077Z,2.01
2022-12-15T14:19:41.578Z,1.88
2022-12-15T14:22:29.011Z,1.79
2022-12-15T14:25:51.983Z,1.77
2022-12-15T14:28:27.890Z,1.74
2022-12-15T14:30:58.330Z,1.73
2022-12-15T14:33:29.633Z,1.63
2022-12-15T14:35:58.461Z,1.67
2022-12-15T14:38:36.714Z,1.66
2022-12-15T14:41:04.808Z,1.67
2022-12-15T14:43:39.699Z,1.57
2022-12-15T14:46:17.205Z,1.59
2022-12-15T14:48:51.007Z,1.62
2022-12-15T14:51:17.940Z,1.43
2022-12-15T14:53:50.004Z,1.44
2022-12-15T14:56:30.442Z,1.59
2022-12-15T14:59:04.949Z,1.53
2022-12-15T15:01:58.281Z,1.47
2022-12-15T15:03:11.017Z,1.17
2022-12-15T15:04:30.457Z,1.44
2022-12-15T15:06:59.583Z,1.44
2022-12-15T15:09:42.372Z,1.38
2022-12-15T15:12:24.718Z,1.30
2022-12-15T15:15:03.025Z,1.31
2022-12-15T15:17:38.870Z,1.21
2022-12-15T15:20:28.835Z,1.04
2022-12-15T15:23:04.567Z,1.09
2022-12-15T15:25:39.443Z,1.00
2022-12-15T15:28:13.132Z,0.92
2022-12-15T15:31:06.745Z,0.75
2022-12-15T15:33:33.599Z,0.76
2022-12-15T15:36:02.541Z,0.66
2022-12-15T15:38:33.274Z,0.64
2022-12-15T15:41:30.490Z,0.75
2022-12-15T15:43:59.952Z,0.68
2022-12-15T15:46:30.879Z,0.71
2022-12-15T15:49:09.142Z,0.75
2022-12-15T15:51:36.282Z,0.69
2022-12-15T15:54:06.283Z,0.61
2022-12-15T15:56:33.017Z,0.69
2022-12-15T15:59:09.342Z,0.77
2022-12-15T16:01:36.036Z,0.78
2022-12-15T16:04:02.709Z,0.74
2022-12-15T16:06:29.266Z,0.73
2022-12-15T16:08:55.868Z,0.71
2022-12-15T16:11:22.980Z,0.66
2022-12-15T16:13:49.731Z,0.62
2022-12-15T16:16:22.395Z,0.58
2022-12-15T16:18:51.611Z,0.58
2022-12-15T16:21:20.389Z,0.59
2022-12-15T16:23:48.716Z,0.71
2022-12-15T16:26:22.293Z,0.72
2022-12-15T16:28:48.769Z,0.71
2022-12-15T16:31:24.703Z,0.74
2022-12-15T16:33:51.515Z,0.59
2022-12-15T16:36:18.067Z,0.52
2022-12-15T16:38:44.743Z,0.62
2022-12-15T16:41:15.267Z,0.60
2022-12-15T16:43:47.783Z,0.68
2022-12-15T16:46:15.904Z,0.72
2022-12-15T16:48:52.684Z,0.77
2022-12-15T16:51:36.969Z,1.00
2022-12-15T16:54:04.113Z,1.19
2022-12-15T16:56:30.632Z,1.25
2022-12-15T16:59:15.473Z,1.28
2022-12-15T17:01:44.304Z,1.23
2022-12-15T17:04:11.634Z,1.11
2022-12-15T17:06:38.503Z,1.05
2022-12-15T17:09:05.930Z,1.04
2022-12-15T17:11:32.702Z,1.08
2022-12-15T17:14:00.857Z,1.05
2022-12-15T17:16:29.094Z,0.88
2022-12-15T17:18:55.734Z,0.88
2022-12-15T17:21:42.393Z,0.82
2022-12-15T17:24:15.476Z,0.82
2022-12-15T17:26:42.673Z,0.74
2022-12-15T17:29:16.791Z,0.63
2022-12-15T17:31:45.619Z,0.58
2022-12-15T17:34:35.385Z,0.58
2022-12-15T17:37:04.446Z,0.54
2022-12-15T17:39:34.171Z,0.53
2022-12-15T17:42:02.358Z,0.54
2022-12-15T17:44:34.382Z,0.52
2022-12-15T17:47:02.359Z,0.32
2022-12-15T17:49:36.586Z,0.28
2022-12-15T17:52:30.457Z,0.30
2022-12-15T17:54:58.741Z,0.27
2022-12-15T17:57:25.794Z,0.21
2022-12-15T17:59:55.665Z,0.30
2022-12-15T18:02:22.439Z,0.26
2022-12-15T18:04:49.092Z,0.30
2022-12-15T18:07:19.965Z,0.31
2022-12-15T18:09:47.599Z,0.18
2022-12-15T18:12:24.703Z,0.22
2022-12-15T18:14:52.241Z,0.10
2022-12-15T18:17:19.583Z,0.05
2022-12-15T18:19:46.640Z,0.11
2022-12-15T18:22:17.346Z,0.24
2022-12-15T18:24:43.892Z,0.16
2022-12-15T18:27:29.747Z,0.01
2022-12-15T18:29:56.800Z,0.02
2022-12-15T18:32:27.728Z,0.01
2022-12-15T18:34:55.222Z,0.07
2022-12-15T18:37:24.557Z,0.02
2022-12-15T18:39:51.030Z,-0.04
2022-12-15T18:42:20.403Z,-0.03
2022-12-15T18:44:49.297Z,-0.13
2022-12-15T18:47:23.833Z,-0.18
2022-12-15T18:49:50.986Z,-0.21
2022-12-15T18:52:22.812Z,-0.18
2022-12-15T18:54:51.149Z,-0.13
2022-12-15T18:57:33.030Z,0.01
2022-12-15T19:00:08.014Z,0.15
2022-12-15T19:02:34.667Z,0.19
2022-12-15T19:05:01.287Z,0.32
2022-12-15T19:07:28.080Z,0.34
2022-12-15T19:09:55.084Z,0.31
2022-12-15T19:12:21.966Z,0.34
2022-12-15T19:14:51.459Z,0.32
2022-12-15T19:17:39.800Z,0.36
2022-12-15T19:20:35.132Z,0.35
2022-12-15T19:23:02.031Z,0.41
2022-12-15T19:25:29.458Z,0.34
2022-12-15T19:27:59.717Z,0.29
2022-12-15T19:30:29.534Z,0.38
2022-12-15T19:32:56.754Z,0.39
2022-12-15T19:35:24.814Z,0.28
2022-12-15T19:37:55.056Z,0.29
2022-12-15T19:40:27.421Z,0.28
2022-12-15T19:42:55.455Z,0.27
2022-12-15T19:45:32.723Z,0.36
2022-12-15T19:47:59.554Z,0.37
2022-12-15T19:50:33.569Z,0.39
2022-12-15T19:53:02.795Z,0.30
2022-12-15T19:55:34.622Z,0.23
2022-12-15T19:58:16.638Z,0.31
2022-12-15T20:00:46.356Z,0.25
2022-12-15T20:03:13.162Z,0.19
2022-12-15T20:05:39.769Z,0.17
2022-12-15T20:08:06.401Z,0.15
2022-12-15T20:10:32.949Z,0.10
2022-12-15T20:13:01.020Z,0.07
2022-12-15T20:15:27.902Z,0.05
2022-12-15T20:17:57.851Z,0.11
2022-12-15T20:20:27.843Z,0.10
2022-12-15T20:22:58.312Z,0.06
2022-12-15T20:25:28.875Z,0.01
2022-12-15T20:27:56.374Z,0.09
2022-12-15T20:30:27.007Z,0.11
2022-12-15T20:32:53.794Z,0.01
2022-12-15T20:35:21.985Z,0.08
2022-12-15T20:37:49.720Z,0.11
2022-12-15T20:40:17.914Z,0.10
2022-12-15T20:42:44.787Z,0.11
2022-12-15T20:45:14.834Z,0.13
2022-12-15T20:47:43.572Z,0.17
2022-12-15T20:50:33.783Z,0.26
2022-12-15T20:53:00.275Z,0.24
2022-12-15T20:55:27.344Z,0.30
2022-12-15T20:57:54.445Z,0.46
2022-12-15T21:00:22.351Z,0.39
2022-12-15T21:02:49.855Z,0.34
2022-12-15T21:05:21.336Z,0.44
2022-12-15T21:07:48.517Z,0.40
2022-12-15T21:10:16.769Z,0.38
2022-12-15T21:12:45.724Z,0.44
2022-12-15T21:15:22.826Z,0.57
2022-12-15T21:18:11.009Z,0.54
2022-12-15T21:20:40.545Z,0.45
2022-12-15T21:23:20.145Z,0.51
2022-12-15T21:25:47.807Z,0.56
2022-12-15T21:28:14.590Z,0.56
2022-12-15T21:30:41.623Z,0.51
2022-12-15T21:33:08.302Z,0.48
2022-12-15T21:35:35.222Z,0.45
2022-12-15T21:38:02.097Z,0.48
2022-12-15T21:40:29.602Z,0.40
2022-12-15T21:42:56.856Z,0.47
2022-12-15T21:45:25.593Z,0.41
2022-12-15T21:48:11.052Z,0.35
2022-12-15T21:50:38.765Z,0.36
2022-12-15T21:53:06.379Z,0.27
2022-12-15T21:55:33.042Z,0.20
2022-12-15T21:57:59.546Z,0.20
2022-12-15T22:00:26.440Z,0.18
2022-12-15T22:02:53.901Z,0.24
2022-12-15T22:05:24.882Z,0.25
2022-12-15T22:07:52.127Z,0.18
2022-12-15T22:10:19.183Z,0.18
2022-12-15T22:12:57.454Z,0.15
2022-12-15T22:15:26.245Z,0.09
2022-12-15T22:17:56.095Z,0.13
2022-12-15T22:20:24.831Z,0.07
2022-12-15T22:22:51.283Z,-0.04
2022-12-15T22:25:28.937Z,-0.01
2022-12-15T22:27:58.649Z,-0.16
2022-12-15T22:30:27.179Z,-0.15
2022-12-15T22:32:54.051Z,-0.14
2022-12-15T22:35:23.497Z,-0.31
2022-12-15T22:37:53.549Z,-0.43
2022-12-15T22:40:21.567Z,-0.45
2022-12-15T22:42:55.095Z,-0.52
2022-12-15T22:45:23.988Z,-0.41
2022-12-15T22:47:52.318Z,-0.44
2022-12-15T22:50:22.016Z,-0.49
2022-12-15T22:52:48.653Z,-0.47
2022-12-15T22:55:16.492Z,-0.50
2022-12-15T22:57:46.842Z,-0.44
2022-12-15T23:00:14.221Z,-0.45
2022-12-15T23:02:46.416Z,-0.39
2022-12-15T23:05:16.941Z,-0.40
2022-12-15T23:07:44.214Z,-0.38
2022-12-15T23:10:31.977Z,-0.43
2022-12-15T23:12:58.488Z,-0.46
2022-12-15T23:15:46.398Z,-0.55
2022-12-15T23:18:13.558Z,-0.58
2022-12-15T23:20:40.516Z,-0.63
2022-12-15T23:23:07.727Z,-0.66
2022-12-15T23:25:34.783Z,-0.57
2022-12-15T23:28:01.321Z,-0.44
2022-12-15T23:30:30.806Z,-0.37
2022-12-15T23:32:57.274Z,-0.16
2022-12-15T23:35:23.751Z,-0.06
2022-12-15T23:37:50.239Z,-0.01
2022-12-15T23:40:21.910Z,0.09
2022-12-15T23:42:50.078Z,0.38
2022-12-15T23:45:17.710Z,0.48
2022-12-15T23:47:44.428Z,0.59
2022-12-15T23:50:10.994Z,0.71
2022-12-15T23:52:37.852Z,0.77
2022-12-15T23:55:05.210Z,1.00
2022-12-15T23:57:31.744Z,1.09
2022-12-15T23:59:58.387Z,1.13
